Latest Weather Observations for Hope Banks Beacon

IDQ60901

Issued at 8:11 am EST Monday 15 July 2024 (issued every 10 minutes, with the page automatically refreshed every 10 minutes)

About weather observations | Map of Brisbane area stations | Latest observations for Brisbane area | Other Formats
Station Details ID: 200897 Name: HOPE BANKS BEACON Lat: -27.43 Lon: 153.29 Height: 7.0 m
Data from the previous 72 hours. | See also: Recent months for locations in Queensland
Date/Time
EST
Temp
°C
App
Temp
°C
Dew
Point
°C
Rel
Hum
%
Delta-T
°C
Wind Press
QNH
hPa
Press
MSL
hPa
Rain since
9am
mm
Dir  Spd
km/h
Gust
km/h
Spd
kts
Gust
kts
15/08:00am - - - - - W 24 28 13 15 - - -
15/07:30am - - - - - W 24 28 13 15 - - -
15/07:00am - - - - - W 24 28 13 15 - - -
15/06:30am - - - - - W 22 26 12 14 - - -
15/06:00am - - - - - W 22 26 12 14 - - -
15/05:30am - - - - - WSW 24 30 13 16 - - -
15/05:00am - - - - - W 24 32 13 17 - - -
15/04:30am - - - - - W 24 28 13 15 - - -
15/04:00am - - - - - WSW 22 28 12 15 - - -
15/03:30am - - - - - WSW 22 30 12 16 - - -
15/03:00am - - - - - WSW 20 28 11 15 - - -
15/02:30am - - - - - WSW 28 33 15 18 - - -
15/02:00am - - - - - WSW 28 33 15 18 - - -
15/01:30am - - - - - WSW 30 37 16 20 - - -
15/01:00am - - - - - W 28 35 15 19 - - -
15/12:30am - - - - - W 26 32 14 17 - - -
15/12:00am - - - - - W 24 28 13 15 - - -
 
Date/Time
EST
Temp
°C
App
Temp
°C
Dew
Point
°C
Rel
Hum
%
Delta-T
°C
Wind Press
QNH
hPa
Press
MSL
hPa
Rain since
9am
mm
Dir  Spd
km/h
Gust
km/h
Spd
kts
Gust
kts
14/11:30pm - - - - - WSW 26 30 14 16 - - -
14/11:00pm - - - - - W 26 33 14 18 - - -
14/10:30pm - - - - - W 22 28 12 15 - - -
14/10:00pm - - - - - W 26 32 14 17 - - -
14/09:30pm - - - - - W 24 32 13 17 - - -
14/09:00pm - - - - - W 30 35 16 19 - - -
14/08:30pm - - - - - W 30 39 16 21 - - -
14/08:00pm - - - - - W 28 39 15 21 - - -
14/07:30pm - - - - - W 28 33 15 18 - - -
14/07:00pm - - - - - W 22 28 12 15 - - -
14/06:30pm - - - - - WNW 24 28 13 15 - - -
14/06:00pm - - - - - WNW 19 24 10 13 - - -
14/05:30pm - - - - - WNW 24 28 13 15 - - -
14/05:00pm - - - - - WNW 20 24 11 13 - - -
14/04:30pm - - - - - WNW 20 26 11 14 - - -
14/04:00pm - - - - - WNW 22 28 12 15 - - -
14/03:30pm - - - - - WNW 22 26 12 14 - - -
14/03:00pm - - - - - WNW 20 28 11 15 - - -
14/02:30pm - - - - - WNW 20 24 11 13 - - -
14/02:00pm - - - - - WNW 15 20 8 11 - - -
14/01:30pm - - - - - W 2 4 1 2 - - -
14/01:00pm - - - - - W 2 9 1 5 - - -
14/12:30pm - - - - - WNW 9 20 5 11 - - -
14/12:00pm - - - - - W 20 24 11 13 - - -
14/11:30am - - - - - W 17 22 9 12 - - -
14/11:00am - - - - - W 19 22 10 12 - - -
14/10:30am - - - - - WSW 20 28 11 15 - - -
14/10:00am - - - - - W 28 32 15 17 - - -
14/09:30am - - - - - W 19 24 10 13 - - -
14/09:00am - - - - - W 22 24 12 13 - - -
14/08:30am - - - - - W 19 24 10 13 - - -
14/08:00am - - - - - W 26 32 14 17 - - -
14/07:30am - - - - - W 30 33 16 18 - - -
14/07:00am - - - - - W 28 33 15 18 - - -
14/06:30am - - - - - W 28 33 15 18 - - -
14/06:00am - - - - - W 28 33 15 18 - - -
14/05:30am - - - - - W 28 35 15 19 - - -
14/05:00am - - - - - WSW 32 37 17 20 - - -
14/04:30am - - - - - WSW 30 35 16 19 - - -
14/04:00am - - - - - W 28 35 15 19 - - -
14/03:30am - - - - - W 30 37 16 20 - - -
14/03:00am - - - - - WSW 30 37 16 20 - - -
14/02:30am - - - - - W 32 39 17 21 - - -
14/02:00am - - - - - W 32 41 17 22 - - -
14/01:30am - - - - - W 32 35 17 19 - - -
14/01:00am - - - - - WSW 30 35 16 19 - - -
14/12:30am - - - - - WSW 30 35 16 19 - - -
14/12:00am - - - - - WSW 33 39 18 21 - - -
 
Date/Time
EST
Temp
°C
App
Temp
°C
Dew
Point
°C
Rel
Hum
%
Delta-T
°C
Wind Press
QNH
hPa
Press
MSL
hPa
Rain since
9am
mm
Dir  Spd
km/h
Gust
km/h
Spd
kts
Gust
kts
13/11:30pm - - - - - W 30 35 16 19 - - -
13/11:00pm - - - - - W 30 35 16 19 - - -
13/10:30pm - - - - - W 30 35 16 19 - - -
13/10:00pm - - - - - W 30 35 16 19 - - -
13/09:30pm - - - - - W 32 37 17 20 - - -
13/09:00pm - - - - - W 28 35 15 19 - - -
13/08:30pm - - - - - W 32 35 17 19 - - -
13/08:00pm - - - - - W 26 32 14 17 - - -
13/07:30pm - - - - - W 26 30 14 16 - - -
13/07:00pm - - - - - W 30 33 16 18 - - -
13/06:30pm - - - - - W 26 32 14 17 - - -
13/06:00pm - - - - - WSW 15 17 8 9 - - -
13/05:30pm - - - - - SW 17 20 9 11 - - -
13/05:00pm - - - - - SW 19 22 10 12 - - -
13/04:30pm - - - - - WSW 20 24 11 13 - - -
13/04:00pm - - - - - W 20 26 11 14 - - -
13/03:30pm - - - - - W 26 33 14 18 - - -
13/03:00pm - - - - - W 30 35 16 19 - - -
13/02:30pm - - - - - W 28 35 15 19 - - -
13/02:00pm - - - - - W 30 35 16 19 - - -
13/01:30pm - - - - - W 28 33 15 18 - - -
13/01:00pm - - - - - W 26 33 14 18 - - -
13/12:30pm - - - - - W 22 30 12 16 - - -
13/12:00pm - - - - - WSW 22 26 12 14 - - -
13/11:30am - - - - - WSW 22 28 12 15 - - -
13/11:00am - - - - - WSW 15 19 8 10 - - -
13/10:30am - - - - - W 22 26 12 14 - - -
13/10:00am - - - - - W 2 4 1 2 - - -
13/09:30am - - - - - WNW 22 26 12 14 - - -
13/09:00am - - - - - NW 2 22 1 12 - - -
13/08:30am - - - - - W 2 11 1 6 - - -
13/08:00am - - - - - WNW 17 20 9 11 - - -
13/07:30am - - - - - W 20 26 11 14 - - -
13/07:00am - - - - - W 19 22 10 12 - - -
13/06:30am - - - - - W 15 19 8 10 - - -
13/06:00am - - - - - W 9 13 5 7 - - -
13/05:30am - - - - - W 13 15 7 8 - - -
13/05:00am - - - - - WNW 11 15 6 8 - - -
13/04:30am - - - - - WNW 11 13 6 7 - - -
13/04:00am - - - - - WSW 9 9 5 5 - - -
13/03:30am - - - - - WNW 13 15 7 8 - - -
13/03:00am - - - - - WNW 11 13 6 7 - - -
13/02:30am - - - - - W 11 13 6 7 - - -
13/02:00am - - - - - W 15 17 8 9 - - -
13/01:30am - - - - - WSW 15 17 8 9 - - -
13/01:00am - - - - - WSW 13 15 7 8 - - -
13/12:30am - - - - - W 9 13 5 7 - - -
13/12:00am - - - - - W 11 15 6 8 - - -
 
Date/Time
EST
Temp
°C
App
Temp
°C
Dew
Point
°C
Rel
Hum
%
Delta-T
°C
Wind Press
QNH
hPa
Press
MSL
hPa
Rain since
9am
mm
Dir  Spd
km/h
Gust
km/h
Spd
kts
Gust
kts
12/11:30pm - - - - - W 13 15 7 8 - - -
12/11:00pm - - - - - W 13 15 7 8 - - -
12/10:30pm - - - - - W 9 13 5 7 - - -
12/10:00pm - - - - - NW 9 13 5 7 - - -
12/09:30pm - - - - - NNW 11 15 6 8 - - -
12/09:00pm - - - - - NNW 17 20 9 11 - - -
12/08:30pm - - - - - NNW 15 22 8 12 - - -
12/08:00pm - - - - - N 15 19 8 10 - - -
12/07:30pm - - - - - N 17 20 9 11 - - -
12/07:00pm - - - - - N 13 17 7 9 - - -
12/06:30pm - - - - - N 15 19 8 10 - - -
12/06:00pm - - - - - N 17 19 9 10 - - -
12/05:30pm - - - - - N 9 13 5 7 - - -
12/05:00pm - - - - - N 9 11 5 6 - - -
12/04:30pm - - - - - N 9 13 5 7 - - -
12/04:00pm - - - - - N 7 9 4 5 - - -
12/03:30pm - - - - - N 13 15 7 8 - - -
12/03:00pm - - - - - N 13 15 7 8 - - -
12/02:30pm - - - - - N 4 15 2 8 - - -
12/02:00pm - - - - - N 7 20 4 11 - - -
12/01:30pm - - - - - NNE 13 15 7 8 - - -
12/01:00pm - - - - - CALM 0 4 0 2 - - -
12/12:30pm - - - - - CALM 0 13 0 7 - - -
12/12:00pm - - - - - CALM 0 2 0 1 - - -
12/11:30am - - - - - CALM 0 0 0 0 - - -
12/11:00am - - - - - CALM 0 0 0 0 - - -
12/10:30am - - - - - SW 4 6 2 3 - - -
12/10:00am - - - - - CALM 0 4 0 2 - - -
12/09:30am - - - - - CALM 0 7 0 4 - - -
12/09:00am - - - - - CALM 0 2 0 1 - - -
12/08:30am - - - - - WSW 17 22 9 12 - - -

Latest Capital City Observations: Canberra | Sydney | Melbourne | Brisbane | Adelaide | Perth | Hobart | Darwin

Other formats

Comma delimited format used in spreadsheet applications
http://www.bom.gov.au/fwo/IDQ60901/IDQ60901.99497.axf

JavaScript Object Notation format (JSON) in row-major order
http://www.bom.gov.au/fwo/IDQ60901/IDQ60901.99497.json

Data quality

Most of these data are generated automatically and are frequently updated. Quality checks on data are not normally performed. It is possible for incorrect values to appear. Refer to information at About Latest Weather Observations and please check the disclaimer before using these data.